BIENT‘T MET'MAP
version 2.0 !

Prťvue avant fin octobre,
la nouvelle version sera
plus belle, plus complŤte
et hťbergťe sur un serveur
3 fois plus puissant...
et toujours gratuite !


Pas compatible ?
Essayez la version Mobile !

SE CONNECTER : | S'inscrire | Disclaimer | Découvrir Orbifly |
Code OACI :
Légende : VFR VFR Marginal IFR IFR Intensif IFR Trés Intensif
Visi :
Plafond :
>= 8 km
>= 3000ft
5 ą 8 km
1000 ą 3000 ft
1500m ą 5 km
500 ą 1000 ft
800 ą 1500m
200 ą 500 ft
< 800m
< 200 ft

METAR - EDLV Weeze - 20 Oct 2019 21:21 UTC
Data Sources :     NOAA   


- Altitude de l'aérodrome : 106 ft
- Code IATA : NRN
- Pas de NOTAMs connus.


EDLV - Weeze

Dernier METAR connu : 2015/08/11 07:50 EDLV 110750Z 00000KT 8000 NSC 21/18 Q1018
TAF TAF EDLV
Valide du 20 à 18h jusqu'au 21 à 18h UTC


201700Z 2018/2118 02005KT 9999 BKN030
BECMG 2019/2022 3000 -RA BKN008
TEMPO 2019/2024 RA
TEMPO 2100/2108 1200 -RADZ BR BKN003
BECMG 2107/2110 18007KT 9999 BKN030

Source NOAA


MET'MAP, la Météo Aéronautique d'un coup d'oeil ! - Copyright ORBIFLY Décembre 2007

Développement & Programmation : Alexandra Zaïnal
Co-Développement : Marc-Olivier Méhu
Soutien technique & logistique : Manuel Goepfert
Conception & Financement : Baudouin d'Aumeries